Leuchars, United Kingdom

8:04 AM BST on October 24, 2014 (GMT +0100)
Leuchars Air Base | Change Station
CLOSE
Current Station
Airport
Location: Leuchars,
Elevation: 39 ft
Nearby Weather Stations

Elev 39 ft 56.38 °N, 2.86 °W | Updated 14 minutes ago

Partly Cloudy
Partly Cloudy
46 °F
Feels Like 41 °F
N
12
Wind Variable Wind from SW

Today
High -- | Low -- °F
--% Chance of Precip.
Yesterday
High -- | Low -- °F
Precip. -- in
8:02 AM 5:48 PM
New Moon, 0% visible
Pressure 29.74 in
Visibility 6.2 miles
Clouds Few 2500 ft
Windchill 41 °F
Dew Point 43 °F
Humidity 87%
Rainfall 0.00 in
Snow Depth Not available.
UV 0 out of 12
Pollen Not available.
Air Quality Not available.
Flu Activity Not available.
METAR EGQL 240650Z 23010KT 9999 FEW025 08/06 Q1007 BLU

More Conditions Fewer Conditions

Pressure 29.74 in
Visibility 6.2 miles
Clouds Few 2500 ft
Windchill 41 °F
Dew Point 43 °F
Humidity 87%
Rainfall 0.00 in
Snow Depth Not available.
UV 0 out of 12
Pollen Not available.
Air Quality Not available.
Flu Activity Not available.
METAR EGQL 240650Z 23010KT 9999 FEW025 08/06 Q1007 BLU

More Conditions Fewer Conditions

10-Day Weather Forecast

Almanac

Astronomy

Oct. 24, 2014 Rise Set
Actual Time 8:02 AM BST 5:48 PM BST
Civil Twilight 7:23 AM BST 6:27 PM BST
Nautical Twilight 6:39 AM BST 7:10 PM BST
Astronomical Twilight 5:55 AM BST 7:54 PM BST
Moon 8:31 AM BST 6:11 PM BST
Length of Visible Light 11h 03m
Length of Day
9h 46m
Tomorrow will be 4m 30s shorter.
New Moon, 0% of the Moon is Illuminated
Today
New Moon
Oct 30
First Quarter
Nov 6
Full
Nov 14
Last Quarter
Nov 22
New

Yesterday's Extremes

Country Highs Country Lows

Community

WunderPhotos

Upload Photos

1,764,510 photos uploaded!

WunderBlogs® & News

Nearby

Snow Depth

Not available.

Earthquake Activity

City Distance Mag. Time & Date
No recent earthquake activity has been reported nearby.
Minimum magnitude displayed is 2.5.

Coastal Water Temperatures

Place Temperature
No Stations Reporting

Nearby Weather Stations